Time;durP1;ratioP1;P1;durP2;ratioP2;P2;SDS_P1;SDS_P2;PMS_P1;PMS_P2;Temp;Humidity;BMP_temperature;BMP_pressure;BME280_temperature;BME280_humidity;BME280_pressure;Samples;Min_cycle;Max_cycle;Signal;HPM_P1;HPM_P2
2023/08/05 00:02:23;;;;;;;7.47;4.70;;;;;;;25.58;nan;62274.69;5010333;28;20180;-76
2023/08/05 00:04:49;;;;;;;7.68;4.57;;;;;;;25.15;nan;62390.44;5015575;28;20168;-77
2023/08/05 00:07:14;;;;;;;6.75;4.40;;;;;;;25.07;nan;62317.03;5015299;28;20251;-79
2023/08/05 00:09:40;;;;;;;6.10;4.32;;;;;;;25.20;nan;62309.81;5015187;28;20170;-76
2023/08/05 00:12:05;;;;;;;5.50;4.22;;;;;;;25.22;nan;62306.84;5013788;28;20204;-78
2023/08/05 00:14:33;;;;;;;9.43;4.88;;;;;;;25.12;nan;62238.47;5014990;28;20207;-77
2023/08/05 00:16:59;;;;;;;6.95;4.57;;;;;;;25.09;nan;62321.38;5015650;28;20172;-76
2023/08/05 00:19:24;;;;;;;8.05;4.85;;;;;;;25.10;nan;62317.28;5013679;28;20195;-77
2023/08/05 00:21:50;;;;;;;6.72;4.43;;;;;;;24.90;nan;62103.59;5014961;28;20175;-77
2023/08/05 00:24:15;;;;;;;6.72;4.18;;;;;;;25.17;nan;62479.03;5015006;28;20237;-78
2023/08/05 00:26:41;;;;;;;7.00;4.03;;;;;;;24.87;nan;62196.91;5014619;28;20707;-78
2023/08/05 00:29:06;;;;;;;7.10;4.57;;;;;;;25.08;nan;62166.50;5015431;28;20191;-76
2023/08/05 00:31:31;;;;;;;5.95;4.30;;;;;;;25.01;nan;62299.75;5013382;28;20638;-78
2023/08/05 00:33:57;;;;;;;8.10;4.82;;;;;;;24.91;nan;62202.03;5014609;28;20251;-75
2023/08/05 00:36:22;;;;;;;6.63;4.65;;;;;;;25.13;nan;62233.81;5014623;28;20231;-75
2023/08/05 00:38:47;;;;;;;7.82;4.80;;;;;;;25.03;nan;62302.00;5014653;28;20251;-78
2023/08/05 00:41:13;;;;;;;6.35;4.35;;;;;;;24.83;nan;62309.97;5013361;28;20250;-77
2023/08/05 00:43:38;;;;;;;5.82;4.22;;;;;;;24.96;nan;62212.97;5013195;28;20643;-76
2023/08/05 00:46:04;;;;;;;9.20;4.95;;;;;;;24.75;nan;62136.16;5014252;28;20201;-77
2023/08/05 00:48:30;;;;;;;6.25;4.57;;;;;;;24.64;nan;62294.66;5014849;28;20176;-77
2023/08/05 00:50:55;;;;;;;5.72;4.43;;;;;;;24.71;nan;62273.31;5014525;28;20172;-76
2023/08/05 00:53:23;;;;;;;6.80;4.55;;;;;;;24.60;nan;62277.00;5014226;28;20204;-77
2023/08/05 00:55:51;;;;;;;6.82;4.63;;;;;;;24.71;nan;62298.88;5013342;28;20555;-79
2023/08/05 00:58:17;;;;;;;6.38;4.68;;;;;;;24.51;nan;62405.22;5013847;28;20584;-78
2023/08/05 01:00:42;;;;;;;7.72;4.60;;;;;;;24.56;nan;62196.66;5014561;28;20701;-77
2023/08/05 01:03:08;;;;;;;7.28;4.53;;;;;;;24.55;nan;62135.44;5014347;28;20203;-76
2023/08/05 01:05:35;;;;;;;5.97;4.50;;;;;;;24.47;nan;62235.47;5014202;28;20172;-77
2023/08/05 01:08:02;;;;;;;5.80;4.18;;;;;;;24.24;nan;62225.50;5014202;28;20180;-77
2023/08/05 01:10:27;;;;;;;6.10;4.38;;;;;;;24.42;nan;62094.50;5014203;28;20222;-77
2023/08/05 01:12:53;;;;;;;6.70;4.32;;;;;;;24.43;nan;62249.78;5012773;28;20714;-76
2023/08/05 01:15:19;;;;;;;7.13;4.85;;;;;;;24.42;nan;62266.34;5014093;28;20164;-76
2023/08/05 01:17:44;;;;;;;8.65;5.07;;;;;;;24.40;nan;62214.44;5013177;28;20266;-76
2023/08/05 01:20:13;;;;;;;7.80;4.85;;;;;;;24.39;nan;62177.31;5012965;28;20655;-77
2023/08/05 01:22:49;;;;;;;7.32;4.80;;;;;;;24.29;nan;62324.66;5013857;28;20176;-77
2023/08/05 01:25:29;;;;;;;6.28;4.53;;;;;;;24.29;nan;62165.34;5012960;28;20225;-78
2023/08/05 01:27:57;;;;;;;7.40;4.85;;;;;;;24.11;nan;62194.97;5014677;28;20220;-78
2023/08/05 01:30:24;;;;;;;7.43;4.50;;;;;;;24.24;nan;62219.69;5014254;28;20179;-78
2023/08/05 01:32:51;;;;;;;6.13;4.75;;;;;;;24.17;nan;62239.00;5012753;28;20206;-77
2023/08/05 01:35:20;;;;;;;7.75;4.93;;;;;;;24.28;nan;62143.88;5012840;28;20186;-75
2023/08/05 01:37:46;;;;;;;6.90;4.75;;;;;;;24.21;nan;62209.03;5013759;28;20168;-76
2023/08/05 01:40:12;;;;;;;6.95;4.80;;;;;;;24.23;nan;62103.66;5013401;28;20187;-78
2023/08/05 01:42:38;;;;;;;9.35;5.18;;;;;;;24.08;nan;62162.84;5013324;28;20575;-78
2023/08/05 01:45:03;;;;;;;8.38;5.03;;;;;;;24.24;nan;62196.75;5012382;28;20234;-78
2023/08/05 01:47:29;;;;;;;6.97;4.88;;;;;;;24.14;nan;62112.22;5013773;28;20643;-76
2023/08/05 01:49:54;;;;;;;6.80;5.05;;;;;;;24.09;nan;62158.78;5014047;28;20206;-76
2023/08/05 01:52:20;;;;;;;6.05;4.57;;;;;;;24.09;nan;62080.44;5012300;28;20192;-77
2023/08/05 01:54:45;;;;;;;7.38;5.20;;;;;;;24.08;nan;62348.25;5013300;28;20215;-76
2023/08/05 01:57:10;;;;;;;9.65;5.25;;;;;;;23.90;nan;62181.50;5012001;28;20187;-76
2023/08/05 01:59:36;;;;;;;8.32;5.28;;;;;;;23.98;nan;62005.25;5013230;28;20172;-77
2023/08/05 02:02:01;;;;;;;8.05;5.40;;;;;;;24.00;nan;62125.56;5013629;28;20267;-78
2023/08/05 02:04:27;;;;;;;7.50;5.35;;;;;;;24.00;nan;62111.97;5028346;28;20184;-77
2023/08/05 02:06:52;;;;;;;8.05;5.40;;;;;;;23.89;nan;62172.53;5018192;28;20183;-77
2023/08/05 02:09:17;;;;;;;7.75;5.30;;;;;;;23.90;nan;62038.50;5013403;28;20183;-78
2023/08/05 02:11:43;;;;;;;7.93;5.00;;;;;;;23.90;nan;62079.69;5011471;28;20219;-78
2023/08/05 02:14:09;;;;;;;7.38;5.18;;;;;;;23.79;nan;62101.66;5013379;28;20217;-77
2023/08/05 02:16:34;;;;;;;7.88;5.28;;;;;;;23.93;nan;62020.47;5011481;28;20180;-77
2023/08/05 02:19:00;;;;;;;7.28;5.32;;;;;;;23.76;nan;62104.06;5012994;28;20168;-76
2023/08/05 02:21:25;;;;;;;8.52;5.10;;;;;;;23.53;nan;62040.75;5012640;28;20550;-77
2023/08/05 02:23:52;;;;;;;8.90;5.40;;;;;;;23.68;nan;61995.19;5012530;28;20176;-78
2023/08/05 02:26:17;;;;;;;10.10;5.20;;;;;;;23.67;nan;61986.81;5012260;28;20195;-76
2023/08/05 02:28:44;;;;;;;10.45;5.40;;;;;;;23.23;nan;61910.69;5011165;28;20711;-76
2023/08/05 02:31:10;;;;;;;8.43;5.72;;;;;;;23.69;nan;61985.91;5012931;28;20262;-76
2023/08/05 02:33:35;;;;;;;8.30;5.63;;;;;;;23.63;nan;61877.91;5012184;28;20722;-78
2023/08/05 02:36:01;;;;;;;8.02;5.55;;;;;;;23.61;nan;61920.00;5012441;28;20199;-78
2023/08/05 02:38:27;;;;;;;7.80;5.50;;;;;;;23.69;nan;61892.53;5012016;28;20640;-76
2023/08/05 02:40:53;;;;;;;10.43;5.63;;;;;;;23.66;nan;61909.44;5012442;28;20180;-76
2023/08/05 02:43:19;;;;;;;8.45;5.82;;;;;;;23.49;nan;61783.75;5012405;28;20267;-78
2023/08/05 02:45:44;;;;;;;8.13;5.47;;;;;;;23.45;nan;61562.75;5010961;28;20176;-76
2023/08/05 02:48:09;;;;;;;8.23;6.03;;;;;;;23.22;nan;61492.44;5012222;28;20645;-79
2023/08/05 02:50:35;;;;;;;10.07;6.43;;;;;;;23.34;nan;61433.53;5012157;28;20230;-79
2023/08/05 02:53:00;;;;;;;7.43;5.70;;;;;;;23.50;nan;61341.50;5010432;28;20290;-78
2023/08/05 02:55:27;;;;;;;7.82;5.90;;;;;;;23.40;nan;61074.69;5010988;28;20584;-78
2023/08/05 02:57:52;;;;;;;9.18;6.22;;;;;;;23.42;nan;60894.41;5012126;28;20259;-77
2023/08/05 03:00:18;;;;;;;10.77;6.63;;;;;;;23.41;nan;60580.44;5011996;28;20204;-77
2023/08/05 03:02:43;;;;;;;10.45;6.43;;;;;;;23.20;nan;60237.06;5012102;28;20176;-77
2023/08/05 03:05:09;;;;;;;9.05;6.28;;;;;;;23.33;nan;60008.53;5012316;28;20617;-78
2023/08/05 03:07:34;;;;;;;10.05;6.95;;;;;;;23.30;nan;59570.03;5010531;28;20581;-76
2023/08/05 03:10:00;;;;;;;9.48;5.95;;;;;;;23.27;nan;58980.50;5010727;28;20176;-77
2023/08/05 03:12:25;;;;;;;13.30;6.15;;;;;;;23.21;nan;58701.00;5010692;28;20586;-78
2023/08/05 03:14:51;;;;;;;9.60;6.07;;;;;;;23.14;nan;57758.03;5012146;28;20204;-77
2023/08/05 03:17:17;;;;;;;10.52;6.35;;;;;;;23.05;nan;56876.41;5012233;28;20188;-76
2023/08/05 03:19:42;;;;;;;10.18;6.30;;;;;;;23.10;nan;56322.09;5011785;28;20606;-78
2023/08/05 03:22:07;;;;;;;11.00;6.50;;;;;;;23.13;nan;55162.59;5010372;28;20770;-78
2023/08/05 03:24:33;;;;;;;10.90;7.05;;;;;;;23.10;nan;54048.81;5010796;28;20172;-77
2023/08/05 03:26:58;;;;;;;11.07;6.70;;;;;;;23.35;nan;54099.97;5011548;28;20187;-78
2023/08/05 03:29:23;;;;;;;10.55;6.63;;;;;;;23.50;nan;54457.63;5012169;28;20311;-78
2023/08/05 03:31:49;;;;;;;9.38;6.72;;;;;;;23.59;nan;56034.16;5011770;28;20210;-78
2023/08/05 03:34:16;;;;;;;10.15;6.72;;;;;;;23.75;nan;56355.59;5011723;28;20222;-78
2023/08/05 03:36:41;;;;;;;10.98;6.70;;;;;;;23.92;nan;57532.63;5012027;28;20183;-79
2023/08/05 03:39:07;;;;;;;10.88;7.03;;;;;;;23.85;nan;57403.25;5016144;28;20176;-76
2023/08/05 03:41:33;;;;;;;10.75;7.00;;;;;;;23.93;nan;57393.47;5014360;28;20192;-77
2023/08/05 03:43:59;;;;;;;10.15;6.65;;;;;;;24.18;nan;58478.44;5016295;28;20210;-77
2023/08/05 03:46:24;;;;;;;11.35;7.30;;;;;;;23.84;nan;57855.72;5015690;28;20176;-76
2023/08/05 03:48:49;;;;;;;11.93;7.35;;;;;;;23.83;nan;55769.41;5014691;28;20172;-78
2023/08/05 03:51:15;;;;;;;12.10;7.32;;;;;;;23.77;nan;54466.75;5015118;28;20176;-78
2023/08/05 03:53:41;;;;;;;11.70;7.10;;;;;;;23.44;nan;49950.22;5016645;28;20207;-76
2023/08/05 03:56:07;;;;;;;12.50;7.90;;;;;;;23.57;nan;48356.28;5014099;28;20179;-79
2023/08/05 03:58:32;;;;;;;18.73;8.30;;;;;;;23.74;nan;46420.44;5014267;28;20635;-78
2023/08/05 04:00:59;;;;;;;20.00;8.55;;;;;;;23.65;nan;42679.88;5015519;28;20245;-77
2023/08/05 04:03:25;;;;;;;15.93;8.85;;;;;;;23.62;nan;40636.47;5015450;28;20195;-79
2023/08/05 04:05:50;;;;;;;18.80;9.13;;;;;;;23.30;nan;34271.44;5013517;28;20176;-78
2023/08/05 04:08:17;;;;;;;15.38;8.70;;;;;;;23.31;nan;30632.81;5015685;28;20254;-77
2023/08/05 04:10:43;;;;;;;15.85;8.65;;;;;;;23.33;nan;27328.31;5015636;28;20172;-76
2023/08/05 04:13:11;;;;;;;17.55;8.93;;;;;;;23.40;nan;25680.59;5014698;28;20242;-75
2023/08/05 04:15:36;;;;;;;14.32;8.88;;;;;;;23.60;nan;28996.66;5014824;28;20174;-76
2023/08/05 04:18:03;;;;;;;19.60;9.02;;;;;;;23.56;nan;29324.66;5014721;28;20172;-76
2023/08/05 04:20:31;;;;;;;19.92;9.50;;;;;;;23.59;nan;29987.94;5013617;28;20183;-76
2023/08/05 04:22:57;;;;;;;17.70;9.07;;;;;;;23.46;nan;31634.28;5021471;28;20207;-77
2023/08/05 04:25:22;;;;;;;18.67;9.70;;;;;;;23.66;nan;30984.81;5031387;28;20179;-77
2023/08/05 04:27:48;;;;;;;22.77;9.48;;;;;;;23.67;nan;30985.75;5015137;28;20254;-78
2023/08/05 04:30:13;;;;;;;20.15;9.75;;;;;;;23.74;nan;30989.81;5013229;28;20187;-78
2023/08/05 04:32:39;;;;;;;19.70;9.95;;;;;;;23.75;nan;32646.00;5014431;28;20236;-76
2023/08/05 04:35:05;;;;;;;20.10;10.10;;;;;;;23.82;nan;41375.38;5014468;28;20279;-78
2023/08/05 04:37:31;;;;;;;24.98;9.60;;;;;;;24.14;nan;44597.25;5014531;28;20323;-75
2023/08/05 04:39:56;;;;;;;22.80;11.35;;;;;;;23.97;nan;38342.28;5014585;28;20172;-78
2023/08/05 04:42:22;;;;;;;21.30;10.68;;;;;;;23.69;nan;36949.13;5014574;28;20184;-77
2023/08/05 04:44:47;;;;;;;23.58;10.65;;;;;;;24.00;nan;38033.81;5013356;28;20176;-78
2023/08/05 04:47:13;;;;;;;23.75;11.27;;;;;;;23.91;nan;43770.22;5014535;28;20180;-77
2023/08/05 04:49:43;;;;;;;22.17;10.82;;;;;;;24.30;nan;48060.38;5013359;28;20172;-78
2023/08/05 04:52:10;;;;;;;26.50;11.73;;;;;;;24.84;nan;54461.50;5014587;28;20196;-79
2023/08/05 04:54:40;;;;;;;20.50;11.18;;;;;;;24.68;nan;55864.16;5014404;28;20187;-78
2023/08/05 04:57:05;;;;;;;21.35;11.57;;;;;;;24.86;nan;56494.00;5014565;28;20183;-78
2023/08/05 04:59:31;;;;;;;17.65;10.25;;;;;;;24.61;nan;55427.56;5014253;28;20168;-77
2023/08/05 05:01:57;;;;;;;20.85;10.88;;;;;;;24.62;nan;55055.66;5014150;28;20207;-78
2023/08/05 05:04:22;;;;;;;21.02;10.23;;;;;;;24.86;nan;56582.19;5013758;28;20168;-78
2023/08/05 05:06:47;;;;;;;20.17;10.50;;;;;;;25.25;nan;58083.28;5013385;28;20272;-77
2023/08/05 05:09:13;;;;;;;22.92;10.45;;;;;;;25.37;nan;59120.75;5012920;28;20175;-78
2023/08/05 05:11:39;;;;;;;19.95;9.18;;;;;;;25.62;nan;59785.59;5014047;28;20333;-79
2023/08/05 05:14:06;;;;;;;19.73;9.77;;;;;;;25.44;nan;60004.31;5013946;28;20168;-77
2023/08/05 05:16:31;;;;;;;20.05;9.50;;;;;;;25.78;nan;60085.22;5013682;28;20172;-79
2023/08/05 05:18:56;;;;;;;19.90;10.38;;;;;;;25.63;nan;60241.31;5013702;28;20202;-79
2023/08/05 05:21:22;;;;;;;17.52;9.82;;;;;;;25.27;nan;59867.91;5013768;28;20551;-78
2023/08/05 05:23:47;;;;;;;17.55;9.43;;;;;;;25.44;nan;59904.94;5012391;28;20172;-78
2023/08/05 05:26:12;;;;;;;18.10;9.73;;;;;;;25.57;nan;59965.25;5013671;28;20707;-78
2023/08/05 05:28:38;;;;;;;17.83;9.48;;;;;;;26.12;nan;60387.22;5013129;28;20274;-77
2023/08/05 05:31:03;;;;;;;17.20;9.75;;;;;;;26.07;nan;60711.53;5013624;28;20192;-78
2023/08/05 05:33:29;;;;;;;18.15;9.52;;;;;;;25.55;nan;60337.63;5013333;28;20663;-77
2023/08/05 05:35:54;;;;;;;19.73;9.68;;;;;;;25.36;nan;60010.63;5013604;28;20180;-76
2023/08/05 05:38:20;;;;;;;19.17;10.35;;;;;;;25.37;nan;60095.97;5013890;28;20164;-78
2023/08/05 05:40:45;;;;;;;17.27;10.02;;;;;;;25.10;nan;59394.47;5013484;28;20172;-77
2023/08/05 05:43:11;;;;;;;16.90;10.02;;;;;;;25.49;nan;59865.97;5011984;28;20182;-76
2023/08/05 05:45:36;;;;;;;18.83;10.20;;;;;;;25.75;nan;60244.69;5012556;28;20172;-76
2023/08/05 05:48:02;;;;;;;18.77;10.80;;;;;;;25.83;nan;60462.34;5013373;28;20168;-78
2023/08/05 05:50:28;;;;;;;17.25;10.10;;;;;;;26.21;nan;60682.66;5013241;28;20179;-78
2023/08/05 05:52:54;;;;;;;20.23;11.15;;;;;;;26.50;nan;61047.16;5011957;28;20208;-77
2023/08/05 05:55:20;;;;;;;19.02;10.18;;;;;;;26.60;nan;61165.22;5011808;28;20258;-77
2023/08/05 05:57:45;;;;;;;17.88;10.25;;;;;;;26.59;nan;61295.16;5013290;28;20176;-78
2023/08/05 06:00:12;;;;;;;16.63;9.98;;;;;;;26.65;nan;61411.97;5010936;28;20172;-77
2023/08/05 06:02:37;;;;;;;15.93;9.82;;;;;;;26.86;nan;61503.28;5010953;28;20195;-78
2023/08/05 06:05:03;;;;;;;17.35;10.27;;;;;;;27.00;nan;61508.56;5012297;28;20678;-75
2023/08/05 06:07:28;;;;;;;18.70;10.32;;;;;;;26.45;nan;61350.19;5012937;28;20180;-76
2023/08/05 06:09:54;;;;;;;20.52;11.20;;;;;;;26.28;nan;60915.13;5011540;28;20172;-77
2023/08/05 06:12:22;;;;;;;20.40;12.43;;;;;;;26.25;nan;60988.31;5012606;28;20191;-76
2023/08/05 06:14:48;;;;;;;18.58;11.70;;;;;;;26.75;nan;61284.88;5011422;28;20188;-79
2023/08/05 06:17:13;;;;;;;17.77;10.60;;;;;;;26.69;nan;61413.88;5012373;28;20172;-75
2023/08/05 06:19:38;;;;;;;17.75;10.60;;;;;;;26.30;nan;61051.53;5012729;28;20714;-76
2023/08/05 06:22:04;;;;;;;19.42;10.77;;;;;;;24.92;nan;60670.81;5011384;28;20680;-80
2023/08/05 06:24:30;;;;;;;15.95;10.25;;;;;;;26.04;nan;60891.47;5012363;28;20168;-78
2023/08/05 06:26:55;;;;;;;21.25;11.40;;;;;;;26.31;nan;61054.72;5012225;28;20187;-77
2023/08/05 06:29:20;;;;;;;18.42;10.45;;;;;;;26.31;nan;61055.25;5012906;28;20161;-79
2023/08/05 06:31:46;;;;;;;16.77;10.13;;;;;;;26.43;nan;61044.00;5012057;28;20608;-78
2023/08/05 06:34:11;;;;;;;16.25;9.88;;;;;;;26.34;nan;61331.06;5011580;28;20207;-77
2023/08/05 06:36:36;;;;;;;15.55;9.63;;;;;;;26.32;nan;61275.84;5011397;28;20600;-77
2023/08/05 06:39:03;;;;;;;15.18;9.70;;;;;;;26.75;nan;61383.91;5011059;28;20207;-77
2023/08/05 06:41:28;;;;;;;16.27;9.98;;;;;;;26.49;nan;61236.75;5013155;28;20207;-77
2023/08/05 06:43:54;;;;;;;16.20;10.00;;;;;;;26.89;nan;61572.75;5035753;28;20188;-77
2023/08/05 06:46:19;;;;;;;16.38;9.75;;;;;;;27.29;nan;61693.41;5013043;28;20632;-77
2023/08/05 06:48:45;;;;;;;14.43;9.18;;;;;;;27.45;nan;61899.94;5011108;28;20238;-79
2023/08/05 06:51:10;;;;;;;13.00;8.60;;;;;;;27.37;nan;61894.06;5012782;28;20183;-80
2023/08/05 06:53:39;;;;;;;12.43;8.13;;;;;;;27.04;nan;61710.34;5011908;28;20204;-78
2023/08/05 06:56:05;;;;;;;11.43;8.45;;;;;;;27.40;nan;61876.47;5011226;28;20172;-78
2023/08/05 06:58:30;;;;;;;13.35;8.07;;;;;;;27.38;nan;61902.50;5012225;28;20322;-79
2023/08/05 07:00:56;;;;;;;13.40;7.65;;;;;;;27.60;nan;62004.16;5012146;28;20164;-78
2023/08/05 07:03:25;;;;;;;12.13;7.60;;;;;;;27.44;nan;61975.50;5011908;28;20259;-78
2023/08/05 07:05:55;;;;;;;12.38;8.18;;;;;;;27.54;nan;62118.13;5012196;28;20614;-79
2023/08/05 07:08:22;;;;;;;10.82;7.72;;;;;;;27.78;nan;62060.22;5010905;28;20624;-79
2023/08/05 07:10:58;;;;;;;11.23;7.45;;;;;;;27.49;nan;61967.50;5011712;28;20234;-79
2023/08/05 07:13:26;;;;;;;12.23;7.72;;;;;;;27.44;nan;61919.78;5011119;28;20238;-77
2023/08/05 07:16:01;;;;;;;13.00;8.30;;;;;;;27.52;nan;61942.00;5010535;28;20212;-79
2023/08/05 07:18:28;;;;;;;11.55;7.68;;;;;;;27.96;nan;62230.41;5010710;28;20175;-77
2023/08/05 07:20:53;;;;;;;11.25;7.82;;;;;;;28.41;nan;62223.81;5010556;28;20257;-78
2023/08/05 07:23:19;;;;;;;11.43;7.28;;;;;;;28.57;nan;62286.19;5027050;28;20222;-78
2023/08/05 07:25:44;;;;;;;11.25;7.72;;;;;;;28.13;nan;62191.97;5011945;28;20481;-77
2023/08/05 07:28:10;;;;;;;10.85;7.40;;;;;;;28.15;nan;62301.44;5012066;28;20604;-78
2023/08/05 07:30:35;;;;;;;12.00;7.35;;;;;;;28.23;nan;62210.66;5012030;28;20554;-78
2023/08/05 07:33:02;;;;;;;10.93;6.97;;;;;;;28.35;nan;62293.22;5011779;28;20207;-77
2023/08/05 07:35:28;;;;;;;10.63;6.95;;;;;;;28.25;nan;62528.97;5010931;28;20187;-76
2023/08/05 07:37:55;;;;;;;9.57;6.70;;;;;;;28.10;nan;62407.25;5010392;28;20187;-78
2023/08/05 07:40:20;;;;;;;11.50;7.20;;;;;;;28.64;nan;62420.38;5011721;28;20160;-77
2023/08/05 07:42:48;;;;;;;10.27;6.90;;;;;;;28.21;nan;62403.44;5012020;28;20236;-77
2023/08/05 07:45:17;;;;;;;10.98;7.32;;;;;;;28.22;nan;62459.81;5010577;28;20222;-78
2023/08/05 07:47:43;;;;;;;11.50;7.72;;;;;;;27.99;nan;62489.28;5015329;28;20267;-76
2023/08/05 07:50:10;;;;;;;13.75;9.05;;;;;;;27.76;nan;62304.84;5021151;28;20168;-78
2023/08/05 07:52:39;;;;;;;13.55;8.73;;;;;;;27.94;nan;62304.91;5012818;28;20196;-80
2023/08/05 07:55:04;;;;;;;13.23;8.48;;;;;;;28.24;nan;62295.91;5011415;28;20173;-76
2023/08/05 07:57:30;;;;;;;11.75;8.07;;;;;;;28.32;nan;62371.31;5011363;28;20187;-79
2023/08/05 07:59:57;;;;;;;12.57;8.18;;;;;;;28.56;nan;62482.28;5011405;28;20713;-76
2023/08/05 08:02:24;;;;;;;14.77;8.45;;;;;;;28.83;nan;62507.28;5010524;28;20613;-77
2023/08/05 08:04:53;;;;;;;12.15;8.02;;;;;;;28.74;nan;62510.19;5012850;28;20176;-77
2023/08/05 08:07:24;;;;;;;13.52;7.97;;;;;;;29.14;nan;62561.13;5011942;28;20262;-78
2023/08/05 08:09:50;;;;;;;12.35;7.55;;;;;;;29.26;nan;62727.00;5010807;28;20698;-77
2023/08/05 08:12:15;;;;;;;10.55;6.93;;;;;;;29.68;nan;63022.28;5010590;28;20210;-76
2023/08/05 08:14:43;;;;;;;12.55;6.90;;;;;;;29.73;nan;62967.97;5010215;28;20643;-77
2023/08/05 08:17:09;;;;;;;10.32;7.22;;;;;;;29.80;nan;62975.44;5011058;28;20172;-77
2023/08/05 08:19:35;;;;;;;9.85;6.25;;;;;;;29.22;nan;62919.91;5012892;28;20215;-76
2023/08/05 08:22:00;;;;;;;8.93;6.28;;;;;;;29.30;nan;62882.28;5009914;28;20580;-76
2023/08/05 08:24:25;;;;;;;9.27;6.05;;;;;;;29.32;nan;62802.94;5013019;28;20257;-77
2023/08/05 08:26:51;;;;;;;9.43;6.03;;;;;;;29.44;nan;62786.56;5014213;28;20187;-78
2023/08/05 08:29:16;;;;;;;10.40;6.43;;;;;;;29.15;nan;62743.34;5014966;28;20179;-77
2023/08/05 08:31:41;;;;;;;8.73;6.00;;;;;;;29.40;nan;63009.09;5015638;28;20171;-76
2023/08/05 08:34:07;;;;;;;11.40;6.93;;;;;;;29.30;nan;62805.91;5014498;28;20781;-76
2023/08/05 08:36:32;;;;;;;10.88;6.57;;;;;;;29.40;nan;62995.91;5014677;28;20183;-76
2023/08/05 08:38:57;;;;;;;9.15;6.18;;;;;;;29.26;nan;62838.19;5013029;28;20215;-78
2023/08/05 08:41:24;;;;;;;10.23;6.68;;;;;;;29.26;nan;62913.97;5014494;28;20199;-77
2023/08/05 08:43:51;;;;;;;12.15;7.45;;;;;;;29.79;nan;62974.88;5014853;28;20638;-78
2023/08/05 08:46:20;;;;;;;9.10;6.35;;;;;;;29.93;nan;62997.72;5014439;28;20179;-78
2023/08/05 08:48:48;;;;;;;8.70;6.25;;;;;;;29.79;nan;63038.13;5014501;28;20226;-78
2023/08/05 08:51:15;;;;;;;10.80;6.35;;;;;;;30.05;nan;63059.00;5013907;28;20175;-79
2023/08/05 08:53:43;;;;;;;10.93;7.13;;;;;;;30.15;nan;63096.88;5014289;28;20199;-79
2023/08/05 08:56:09;;;;;;;9.07;6.03;;;;;;;30.07;nan;63159.44;5014350;28;20172;-78
2023/08/05 08:58:35;;;;;;;8.05;5.30;;;;;;;30.15;nan;63049.97;5013353;28;20294;-78
2023/08/05 09:01:03;;;;;;;7.60;5.15;;;;;;;30.26;nan;63107.47;5031097;28;20184;-77
2023/08/05 09:03:31;;;;;;;9.23;5.80;;;;;;;30.55;nan;63166.69;5022024;28;20187;-79
2023/08/05 09:05:56;;;;;;;7.32;5.30;;;;;;;30.39;nan;63034.78;5014942;28;20171;-77
2023/08/05 09:08:22;;;;;;;8.57;5.68;;;;;;;30.42;nan;63116.81;5015369;28;20685;-78
2023/08/05 09:10:47;;;;;;;8.02;4.95;;;;;;;30.50;nan;63250.66;5014208;28;20211;-77
2023/08/05 09:13:17;;;;;;;9.10;5.20;;;;;;;30.15;nan;62897.00;5012627;28;20231;-77
2023/08/05 09:15:43;;;;;;;7.85;5.22;;;;;;;30.40;nan;63122.44;5013958;28;20275;-78
2023/08/05 09:18:09;;;;;;;7.65;5.30;;;;;;;30.47;nan;63049.31;5012570;28;20183;-79
2023/08/05 09:20:36;;;;;;;8.00;5.32;;;;;;;30.52;nan;63097.25;5013723;28;20176;-77
2023/08/05 09:23:05;;;;;;;7.82;5.40;;;;;;;30.31;nan;63181.22;5014481;28;20289;-78
2023/08/05 09:25:32;;;;;;;6.82;4.80;;;;;;;30.32;nan;63065.75;5013548;28;20167;-77
2023/08/05 09:28:00;;;;;;;7.50;5.68;;;;;;;30.58;nan;63090.38;5013599;28;20609;-78
2023/08/05 09:30:25;;;;;;;8.43;5.57;;;;;;;30.86;nan;63124.66;5013654;28;20174;-79
2023/08/05 09:32:52;;;;;;;7.25;5.30;;;;;;;31.16;nan;63158.66;5013742;28;20195;-77
2023/08/05 09:35:18;;;;;;;8.73;5.55;;;;;;;30.98;nan;63349.75;5011698;28;20183;-77
2023/08/05 09:37:49;;;;;;;7.75;5.47;;;;;;;31.21;nan;63256.88;5012119;28;20182;-76
2023/08/05 09:40:18;;;;;;;9.27;5.57;;;;;;;31.43;nan;63263.72;5013477;28;20176;-78
2023/08/05 09:42:47;;;;;;;7.43;5.47;;;;;;;31.41;nan;63399.41;5013456;28;20235;-77
2023/08/05 09:45:15;;;;;;;8.82;5.80;;;;;;;31.24;nan;63128.81;5013277;28;20554;-77
2023/08/05 09:47:42;;;;;;;6.72;5.07;;;;;;;31.28;nan;63270.22;5011820;28;20647;-80
2023/08/05 09:50:11;;;;;;;7.95;5.68;;;;;;;31.21;nan;63238.97;5013303;28;20616;-77
2023/08/05 09:52:39;;;;;;;7.75;5.50;;;;;;;31.26;nan;63225.66;5013506;28;20187;-75
2023/08/05 09:55:11;;;;;;;6.25;4.80;;;;;;;31.42;nan;63242.00;5012093;28;20611;-76
2023/08/05 09:57:39;;;;;;;8.68;5.18;;;;;;;31.58;nan;63294.81;5011941;28;20639;-76
2023/08/05 10:00:13;;;;;;;9.25;5.88;;;;;;;31.78;nan;63377.56;5012641;28;20262;-78
2023/08/05 10:02:43;;;;;;;8.75;5.40;;;;;;;31.80;nan;63348.72;5012376;28;20684;-78
2023/08/05 10:05:10;;;;;;;7.95;5.15;;;;;;;31.81;nan;63288.47;5011772;28;20210;-78
2023/08/05 10:07:37;;;;;;;6.95;4.88;;;;;;;31.86;nan;63233.44;5012912;28;20229;-78
2023/08/05 10:10:07;;;;;;;6.45;4.55;;;;;;;31.96;nan;63290.47;5012866;28;20176;-79
2023/08/05 10:12:39;;;;;;;5.88;4.53;;;;;;;32.11;nan;63378.06;5012979;28;20195;-78
2023/08/05 10:15:07;;;;;;;7.00;4.70;;;;;;;32.09;nan;63413.38;5013157;28;20179;-79
2023/08/05 10:17:35;;;;;;;6.68;4.85;;;;;;;32.03;nan;63287.38;5011759;28;20233;-78
2023/08/05 10:20:00;;;;;;;7.13;4.72;;;;;;;31.98;nan;63337.75;5012987;28;20184;-77
2023/08/05 10:22:27;;;;;;;6.65;4.60;;;;;;;32.32;nan;63389.09;5011342;28;20289;-77
2023/08/05 10:25:00;;;;;;;6.18;4.40;;;;;;;32.11;nan;63439.50;5012636;28;20179;-77
2023/08/05 10:27:40;;;;;;;8.40;4.38;;;;;;;32.10;nan;63393.34;5012295;28;20269;-79
2023/08/05 10:30:07;;;;;;;5.35;3.80;;;;;;;32.42;nan;63593.84;5012836;28;20175;-77
2023/08/05 10:32:33;;;;;;;6.18;4.07;;;;;;;32.41;nan;63474.16;5012660;28;20286;-79
2023/08/05 10:35:38;;;;;;;8.98;4.40;;;;;;;32.43;nan;63457.94;5012127;28;20532;-78
2023/08/05 10:38:23;;;;;;;4.00;3.45;;;;;;;32.47;nan;63442.84;4981941;28;20658;-79
2023/08/05 10:40:55;;;;;;;5.88;4.32;;;;;;;32.50;nan;63459.56;5012134;28;20618;-76
2023/08/05 10:43:30;;;;;;;4.50;3.60;;;;;;;32.50;nan;63446.91;5012200;28;20713;-79
2023/08/05 10:46:05;;;;;;;7.45;3.63;;;;;;;32.49;nan;63386.94;5011938;28;20644;-77
2023/08/05 10:48:51;;;;;;;5.93;3.47;;;;;;;32.61;nan;63472.28;5010932;28;20183;-78
2023/08/05 10:51:17;;;;;;;6.00;4.13;;;;;;;32.50;nan;63607.84;5011768;28;20286;-76
2023/08/05 10:53:55;;;;;;;6.07;4.03;;;;;;;32.83;nan;63532.16;5010862;28;20215;-78
2023/08/05 10:56:35;;;;;;;4.93;3.63;;;;;;;32.67;nan;63368.00;5012109;28;20241;-77
2023/08/05 10:59:02;;;;;;;6.30;3.28;;;;;;;32.65;nan;63529.88;5012391;28;20309;-77
2023/08/05 11:01:55;;;;;;;6.65;3.90;;;;;;;32.86;nan;63549.44;5010890;28;20274;-79
2023/08/05 11:04:31;;;;;;;6.47;3.70;;;;;;;32.76;nan;63437.25;5012073;28;20302;-77
2023/08/05 11:07:00;;;;;;;5.57;4.05;;;;;;;32.88;nan;63526.75;5012380;28;20171;-78
2023/08/05 11:09:35;;;;;;;5.65;3.97;;;;;;;32.84;nan;63424.69;5010790;28;20183;-79
2023/08/05 11:12:01;;;;;;;4.88;3.72;;;;;;;33.09;nan;63590.78;5012210;28;20171;-78
2023/08/05 11:14:27;;;;;;;7.45;3.78;;;;;;;33.19;nan;63554.66;5012073;28;20210;-77
2023/08/05 11:17:00;;;;;;;4.75;3.40;;;;;;;33.03;nan;63581.75;5014285;28;20206;-78
2023/08/05 11:19:25;;;;;;;5.10;3.40;;;;;;;33.09;nan;63665.56;5029690;28;20180;-78
2023/08/05 11:21:51;;;;;;;5.80;3.70;;;;;;;33.02;nan;63593.84;5013202;28;20226;-78
2023/08/05 11:24:17;;;;;;;5.35;3.75;;;;;;;33.26;nan;63615.78;5011313;28;20175;-78
2023/08/05 11:26:49;;;;;;;5.78;3.58;;;;;;;33.13;nan;63603.94;5011719;28;20176;-78
2023/08/05 11:29:14;;;;;;;4.32;3.30;;;;;;;33.14;nan;63633.66;5011260;28;20274;-77
2023/08/05 11:31:50;;;;;;;4.32;3.28;;;;;;;33.44;nan;63790.38;5011567;28;20613;-78
2023/08/05 11:34:22;;;;;;;4.43;3.30;;;;;;;33.30;nan;63636.88;5011702;28;20252;-78
2023/08/05 11:36:57;;;;;;;4.05;3.22;;;;;;;33.34;nan;63624.47;5011717;28;20183;-78
2023/08/05 11:39:26;;;;;;;5.15;3.35;;;;;;;33.78;nan;63611.72;5012252;28;20171;-79
2023/08/05 11:41:52;;;;;;;4.80;3.65;;;;;;;33.93;nan;63660.34;5010474;28;20282;-78
2023/08/05 11:44:19;;;;;;;4.32;3.25;;;;;;;33.84;nan;63594.81;5010397;28;20274;-78
2023/08/05 11:46:44;;;;;;;4.97;3.30;;;;;;;33.87;nan;63749.50;5013644;28;20167;-79